sensor_id;sensor_type;location;lat;lon;timestamp;P1;durP1;ratioP1;P2;durP2;ratioP2
13421;SDS011;6782;55.904;13.396;2023-05-10T00:00:07;4.07;;;3.63;;
13421;SDS011;6782;55.904;13.396;2023-05-10T00:02:35;4.60;;;3.77;;
13421;SDS011;6782;55.904;13.396;2023-05-10T00:05:05;5.47;;;4.40;;
13421;SDS011;6782;55.904;13.396;2023-05-10T00:07:32;5.18;;;3.78;;
13421;SDS011;6782;55.904;13.396;2023-05-10T00:09:59;5.47;;;3.83;;
13421;SDS011;6782;55.904;13.396;2023-05-10T00:12:26;6.10;;;4.07;;
13421;SDS011;6782;55.904;13.396;2023-05-10T00:14:53;4.97;;;4.00;;
13421;SDS011;6782;55.904;13.396;2023-05-10T00:17:21;4.28;;;3.75;;
13421;SDS011;6782;55.904;13.396;2023-05-10T00:19:47;9.20;;;4.40;;
13421;SDS011;6782;55.904;13.396;2023-05-10T00:22:16;4.80;;;4.20;;
13421;SDS011;6782;55.904;13.396;2023-05-10T00:24:43;5.10;;;4.10;;
13421;SDS011;6782;55.904;13.396;2023-05-10T00:27:10;5.20;;;3.67;;
13421;SDS011;6782;55.904;13.396;2023-05-10T00:29:37;4.87;;;4.00;;
13421;SDS011;6782;55.904;13.396;2023-05-10T00:32:04;4.90;;;4.10;;
13421;SDS011;6782;55.904;13.396;2023-05-10T00:34:31;4.40;;;4.00;;
13421;SDS011;6782;55.904;13.396;2023-05-10T00:36:58;5.93;;;4.67;;
13421;SDS011;6782;55.904;13.396;2023-05-10T00:39:27;4.60;;;3.80;;
13421;SDS011;6782;55.904;13.396;2023-05-10T00:41:55;4.73;;;3.93;;
13421;SDS011;6782;55.904;13.396;2023-05-10T00:44:22;5.10;;;4.10;;
13421;SDS011;6782;55.904;13.396;2023-05-10T00:46:49;5.80;;;4.17;;
13421;SDS011;6782;55.904;13.396;2023-05-10T00:49:16;6.32;;;4.38;;
13421;SDS011;6782;55.904;13.396;2023-05-10T00:51:44;4.97;;;4.30;;
13421;SDS011;6782;55.904;13.396;2023-05-10T00:54:11;6.33;;;4.20;;
13421;SDS011;6782;55.904;13.396;2023-05-10T00:56:41;5.97;;;3.90;;
13421;SDS011;6782;55.904;13.396;2023-05-10T00:59:08;9.30;;;4.40;;
13421;SDS011;6782;55.904;13.396;2023-05-10T01:01:35;5.63;;;4.13;;
13421;SDS011;6782;55.904;13.396;2023-05-10T01:04:02;5.03;;;4.17;;
13421;SDS011;6782;55.904;13.396;2023-05-10T01:06:30;5.83;;;3.63;;
13421;SDS011;6782;55.904;13.396;2023-05-10T01:08:57;4.80;;;4.00;;
13421;SDS011;6782;55.904;13.396;2023-05-10T01:11:24;6.20;;;4.23;;
13421;SDS011;6782;55.904;13.396;2023-05-10T01:13:54;6.43;;;4.30;;
13421;SDS011;6782;55.904;13.396;2023-05-10T01:16:23;6.03;;;3.87;;
13421;SDS011;6782;55.904;13.396;2023-05-10T01:18:51;5.67;;;4.17;;
13421;SDS011;6782;55.904;13.396;2023-05-10T01:21:20;4.33;;;3.93;;
13421;SDS011;6782;55.904;13.396;2023-05-10T01:24:03;4.77;;;3.80;;
13421;SDS011;6782;55.904;13.396;2023-05-10T01:29:44;5.60;;;3.57;;
13421;SDS011;6782;55.904;13.396;2023-05-10T01:32:31;4.77;;;4.30;;
13421;SDS011;6782;55.904;13.396;2023-05-10T01:35:03;4.33;;;3.93;;
13421;SDS011;6782;55.904;13.396;2023-05-10T01:37:37;5.23;;;3.93;;
13421;SDS011;6782;55.904;13.396;2023-05-10T01:40:11;4.07;;;3.67;;
13421;SDS011;6782;55.904;13.396;2023-05-10T01:42:46;5.23;;;4.00;;
13421;SDS011;6782;55.904;13.396;2023-05-10T01:45:18;4.97;;;3.97;;
13421;SDS011;6782;55.904;13.396;2023-05-10T01:47:54;3.83;;;3.53;;
13421;SDS011;6782;55.904;13.396;2023-05-10T01:50:29;5.07;;;3.90;;
13421;SDS011;6782;55.904;13.396;2023-05-10T01:52:57;6.23;;;4.50;;
13421;SDS011;6782;55.904;13.396;2023-05-10T01:55:27;4.90;;;3.73;;
13421;SDS011;6782;55.904;13.396;2023-05-10T01:57:58;5.97;;;4.13;;
13421;SDS011;6782;55.904;13.396;2023-05-10T02:00:29;5.57;;;4.83;;
13421;SDS011;6782;55.904;13.396;2023-05-10T02:02:59;6.77;;;4.27;;
13421;SDS011;6782;55.904;13.396;2023-05-10T02:05:28;6.33;;;4.30;;
13421;SDS011;6782;55.904;13.396;2023-05-10T02:07:58;5.43;;;4.30;;
13421;SDS011;6782;55.904;13.396;2023-05-10T02:10:27;5.90;;;4.30;;
13421;SDS011;6782;55.904;13.396;2023-05-10T02:12:55;5.17;;;4.20;;
13421;SDS011;6782;55.904;13.396;2023-05-10T02:15:25;8.60;;;4.37;;
13421;SDS011;6782;55.904;13.396;2023-05-10T02:17:54;5.40;;;4.20;;
13421;SDS011;6782;55.904;13.396;2023-05-10T02:20:24;4.83;;;4.00;;
13421;SDS011;6782;55.904;13.396;2023-05-10T02:22:52;4.40;;;4.00;;
13421;SDS011;6782;55.904;13.396;2023-05-10T02:25:23;5.23;;;4.63;;
13421;SDS011;6782;55.904;13.396;2023-05-10T02:27:51;6.70;;;4.40;;
13421;SDS011;6782;55.904;13.396;2023-05-10T02:30:22;4.87;;;4.20;;
13421;SDS011;6782;55.904;13.396;2023-05-10T02:32:50;6.90;;;4.53;;
13421;SDS011;6782;55.904;13.396;2023-05-10T02:35:18;5.77;;;4.10;;
13421;SDS011;6782;55.904;13.396;2023-05-10T02:37:47;5.43;;;4.20;;
13421;SDS011;6782;55.904;13.396;2023-05-10T02:40:15;5.30;;;4.27;;
13421;SDS011;6782;55.904;13.396;2023-05-10T02:42:44;5.43;;;4.53;;
13421;SDS011;6782;55.904;13.396;2023-05-10T02:45:14;5.27;;;4.20;;
13421;SDS011;6782;55.904;13.396;2023-05-10T02:47:44;6.33;;;4.53;;
13421;SDS011;6782;55.904;13.396;2023-05-10T02:50:11;6.13;;;4.43;;
13421;SDS011;6782;55.904;13.396;2023-05-10T02:52:39;6.27;;;3.90;;
13421;SDS011;6782;55.904;13.396;2023-05-10T02:55:11;5.83;;;4.20;;
13421;SDS011;6782;55.904;13.396;2023-05-10T02:57:41;5.70;;;3.70;;
13421;SDS011;6782;55.904;13.396;2023-05-10T03:00:12;4.57;;;3.73;;
13421;SDS011;6782;55.904;13.396;2023-05-10T03:02:39;5.90;;;4.30;;
13421;SDS011;6782;55.904;13.396;2023-05-10T03:05:07;4.10;;;3.80;;
13421;SDS011;6782;55.904;13.396;2023-05-10T03:07:35;6.97;;;4.47;;
13421;SDS011;6782;55.904;13.396;2023-05-10T03:10:02;4.83;;;4.40;;
13421;SDS011;6782;55.904;13.396;2023-05-10T03:12:33;4.57;;;3.63;;
13421;SDS011;6782;55.904;13.396;2023-05-10T03:15:13;4.70;;;4.03;;
13421;SDS011;6782;55.904;13.396;2023-05-10T03:17:50;4.27;;;3.97;;
13421;SDS011;6782;55.904;13.396;2023-05-10T03:20:21;5.27;;;4.00;;
13421;SDS011;6782;55.904;13.396;2023-05-10T03:22:51;5.53;;;4.33;;
13421;SDS011;6782;55.904;13.396;2023-05-10T03:25:22;7.53;;;4.40;;
13421;SDS011;6782;55.904;13.396;2023-05-10T03:27:51;4.93;;;3.80;;
13421;SDS011;6782;55.904;13.396;2023-05-10T03:30:19;4.03;;;3.63;;
13421;SDS011;6782;55.904;13.396;2023-05-10T03:32:46;6.00;;;4.37;;
13421;SDS011;6782;55.904;13.396;2023-05-10T03:35:13;5.13;;;4.40;;
13421;SDS011;6782;55.904;13.396;2023-05-10T03:37:40;6.00;;;4.37;;
13421;SDS011;6782;55.904;13.396;2023-05-10T03:40:07;5.53;;;4.13;;
13421;SDS011;6782;55.904;13.396;2023-05-10T03:42:35;3.95;;;3.55;;
13421;SDS011;6782;55.904;13.396;2023-05-10T03:45:04;13.02;;;4.28;;
13421;SDS011;6782;55.904;13.396;2023-05-10T03:47:32;5.45;;;4.40;;
13421;SDS011;6782;55.904;13.396;2023-05-10T03:49:59;5.28;;;3.80;;
13421;SDS011;6782;55.904;13.396;2023-05-10T03:52:26;4.70;;;4.10;;
13421;SDS011;6782;55.904;13.396;2023-05-10T03:54:53;7.00;;;4.22;;
13421;SDS011;6782;55.904;13.396;2023-05-10T03:57:20;4.35;;;3.95;;
13421;SDS011;6782;55.904;13.396;2023-05-10T03:59:47;4.25;;;3.47;;
13421;SDS011;6782;55.904;13.396;2023-05-10T04:02:15;6.43;;;4.03;;
13421;SDS011;6782;55.904;13.396;2023-05-10T04:04:42;5.05;;;4.07;;
13421;SDS011;6782;55.904;13.396;2023-05-10T04:07:09;5.95;;;4.10;;
13421;SDS011;6782;55.904;13.396;2023-05-10T04:09:36;6.80;;;4.07;;
13421;SDS011;6782;55.904;13.396;2023-05-10T04:12:03;6.60;;;4.47;;
13421;SDS011;6782;55.904;13.396;2023-05-10T04:14:30;5.60;;;4.05;;
13421;SDS011;6782;55.904;13.396;2023-05-10T04:16:58;7.57;;;4.65;;
13421;SDS011;6782;55.904;13.396;2023-05-10T04:19:30;4.90;;;4.20;;
13421;SDS011;6782;55.904;13.396;2023-05-10T04:21:58;5.40;;;4.70;;
13421;SDS011;6782;55.904;13.396;2023-05-10T04:24:25;4.90;;;3.72;;
13421;SDS011;6782;55.904;13.396;2023-05-10T04:26:53;7.60;;;4.28;;
13421;SDS011;6782;55.904;13.396;2023-05-10T04:29:20;5.50;;;4.18;;
13421;SDS011;6782;55.904;13.396;2023-05-10T04:31:48;5.22;;;4.18;;
13421;SDS011;6782;55.904;13.396;2023-05-10T04:34:16;5.70;;;4.32;;
13421;SDS011;6782;55.904;13.396;2023-05-10T04:36:45;4.95;;;4.25;;
13421;SDS011;6782;55.904;13.396;2023-05-10T04:39:12;6.65;;;4.53;;
13421;SDS011;6782;55.904;13.396;2023-05-10T04:41:40;6.18;;;4.35;;
13421;SDS011;6782;55.904;13.396;2023-05-10T04:44:07;6.47;;;4.35;;
13421;SDS011;6782;55.904;13.396;2023-05-10T04:46:34;4.43;;;4.03;;
13421;SDS011;6782;55.904;13.396;2023-05-10T04:49:01;4.93;;;4.13;;
13421;SDS011;6782;55.904;13.396;2023-05-10T04:51:29;5.95;;;4.50;;
13421;SDS011;6782;55.904;13.396;2023-05-10T04:53:58;5.75;;;4.53;;
13421;SDS011;6782;55.904;13.396;2023-05-10T04:56:25;4.85;;;4.22;;
13421;SDS011;6782;55.904;13.396;2023-05-10T04:58:52;5.43;;;4.35;;
13421;SDS011;6782;55.904;13.396;2023-05-10T05:01:19;8.30;;;4.88;;
13421;SDS011;6782;55.904;13.396;2023-05-10T05:03:48;6.22;;;4.70;;
13421;SDS011;6782;55.904;13.396;2023-05-10T05:06:15;5.80;;;4.32;;
13421;SDS011;6782;55.904;13.396;2023-05-10T05:08:42;5.20;;;4.65;;
13421;SDS011;6782;55.904;13.396;2023-05-10T05:11:11;5.10;;;4.63;;
13421;SDS011;6782;55.904;13.396;2023-05-10T05:13:38;5.57;;;4.97;;
13421;SDS011;6782;55.904;13.396;2023-05-10T05:16:05;6.47;;;4.22;;
13421;SDS011;6782;55.904;13.396;2023-05-10T05:18:32;4.90;;;4.45;;
13421;SDS011;6782;55.904;13.396;2023-05-10T05:21:00;7.18;;;4.63;;
13421;SDS011;6782;55.904;13.396;2023-05-10T05:23:27;7.38;;;4.30;;
13421;SDS011;6782;55.904;13.396;2023-05-10T05:25:55;9.00;;;4.68;;
13421;SDS011;6782;55.904;13.396;2023-05-10T05:28:23;4.85;;;4.40;;
13421;SDS011;6782;55.904;13.396;2023-05-10T05:30:51;8.70;;;4.32;;
13421;SDS011;6782;55.904;13.396;2023-05-10T05:33:18;5.38;;;4.47;;
13421;SDS011;6782;55.904;13.396;2023-05-10T05:35:46;6.43;;;4.97;;
13421;SDS011;6782;55.904;13.396;2023-05-10T05:38:16;5.75;;;4.38;;
13421;SDS011;6782;55.904;13.396;2023-05-10T05:40:45;5.03;;;4.63;;
13421;SDS011;6782;55.904;13.396;2023-05-10T05:43:12;4.93;;;4.30;;
13421;SDS011;6782;55.904;13.396;2023-05-10T05:45:42;5.05;;;4.55;;
13421;SDS011;6782;55.904;13.396;2023-05-10T05:48:09;5.97;;;4.30;;
13421;SDS011;6782;55.904;13.396;2023-05-10T05:50:36;6.88;;;4.80;;
13421;SDS011;6782;55.904;13.396;2023-05-10T05:53:04;6.15;;;4.50;;
13421;SDS011;6782;55.904;13.396;2023-05-10T05:55:52;7.72;;;4.38;;
13421;SDS011;6782;55.904;13.396;2023-05-10T05:58:40;7.10;;;4.70;;
13421;SDS011;6782;55.904;13.396;2023-05-10T06:01:29;7.05;;;4.72;;
13421;SDS011;6782;55.904;13.396;2023-05-10T06:04:16;8.07;;;4.85;;
13421;SDS011;6782;55.904;13.396;2023-05-10T06:07:04;5.75;;;4.40;;
13421;SDS011;6782;55.904;13.396;2023-05-10T06:09:52;9.90;;;5.10;;
13421;SDS011;6782;55.904;13.396;2023-05-10T06:12:39;6.05;;;4.65;;
13421;SDS011;6782;55.904;13.396;2023-05-10T06:15:27;7.20;;;4.47;;
13421;SDS011;6782;55.904;13.396;2023-05-10T06:18:15;5.60;;;4.38;;
13421;SDS011;6782;55.904;13.396;2023-05-10T06:21:02;7.25;;;4.40;;
13421;SDS011;6782;55.904;13.396;2023-05-10T06:23:50;5.80;;;4.43;;
13421;SDS011;6782;55.904;13.396;2023-05-10T06:26:37;5.15;;;4.35;;
13421;SDS011;6782;55.904;13.396;2023-05-10T06:29:24;7.13;;;4.20;;
13421;SDS011;6782;55.904;13.396;2023-05-10T06:32:12;4.50;;;4.10;;
13421;SDS011;6782;55.904;13.396;2023-05-10T06:35:01;5.10;;;4.50;;
13421;SDS011;6782;55.904;13.396;2023-05-10T06:37:48;6.13;;;4.28;;
13421;SDS011;6782;55.904;13.396;2023-05-10T06:40:36;5.20;;;4.40;;
13421;SDS011;6782;55.904;13.396;2023-05-10T06:43:23;6.10;;;4.50;;
13421;SDS011;6782;55.904;13.396;2023-05-10T06:46:11;4.85;;;4.00;;
13421;SDS011;6782;55.904;13.396;2023-05-10T06:48:58;7.97;;;4.70;;
13421;SDS011;6782;55.904;13.396;2023-05-10T06:51:48;6.35;;;4.45;;
13421;SDS011;6782;55.904;13.396;2023-05-10T06:54:35;6.45;;;4.70;;
13421;SDS011;6782;55.904;13.396;2023-05-10T06:57:22;5.25;;;4.05;;
13421;SDS011;6782;55.904;13.396;2023-05-10T07:00:10;7.00;;;4.60;;
13421;SDS011;6782;55.904;13.396;2023-05-10T07:02:57;5.78;;;3.97;;
13421;SDS011;6782;55.904;13.396;2023-05-10T07:05:44;7.35;;;4.63;;
13421;SDS011;6782;55.904;13.396;2023-05-10T07:08:34;5.15;;;4.15;;
13421;SDS011;6782;55.904;13.396;2023-05-10T07:11:21;4.47;;;4.07;;
13421;SDS011;6782;55.904;13.396;2023-05-10T07:14:09;4.93;;;4.43;;
13421;SDS011;6782;55.904;13.396;2023-05-10T07:16:56;7.18;;;4.47;;
13421;SDS011;6782;55.904;13.396;2023-05-10T07:19:43;4.53;;;4.05;;
13421;SDS011;6782;55.904;13.396;2023-05-10T07:22:30;7.60;;;4.75;;
13421;SDS011;6782;55.904;13.396;2023-05-10T07:25:19;5.38;;;4.13;;
13421;SDS011;6782;55.904;13.396;2023-05-10T07:28:07;5.13;;;4.68;;
13421;SDS011;6782;55.904;13.396;2023-05-10T07:30:54;6.18;;;4.40;;
13421;SDS011;6782;55.904;13.396;2023-05-10T07:33:41;5.32;;;4.40;;
13421;SDS011;6782;55.904;13.396;2023-05-10T07:36:28;8.20;;;4.75;;
13421;SDS011;6782;55.904;13.396;2023-05-10T07:39:16;6.63;;;4.47;;
13421;SDS011;6782;55.904;13.396;2023-05-10T07:42:05;6.35;;;4.18;;
13421;SDS011;6782;55.904;13.396;2023-05-10T07:44:32;5.65;;;4.68;;
13421;SDS011;6782;55.904;13.396;2023-05-10T07:46:59;4.60;;;4.20;;
13421;SDS011;6782;55.904;13.396;2023-05-10T07:49:27;4.45;;;3.90;;
13421;SDS011;6782;55.904;13.396;2023-05-10T07:51:54;4.93;;;4.22;;
13421;SDS011;6782;55.904;13.396;2023-05-10T07:54:21;4.72;;;4.00;;
13421;SDS011;6782;55.904;13.396;2023-05-10T07:56:48;5.22;;;4.53;;
13421;SDS011;6782;55.904;13.396;2023-05-10T07:59:17;4.68;;;4.18;;
13421;SDS011;6782;55.904;13.396;2023-05-10T08:01:45;5.72;;;4.10;;
13421;SDS011;6782;55.904;13.396;2023-05-10T08:04:12;5.90;;;4.13;;
13421;SDS011;6782;55.904;13.396;2023-05-10T08:06:39;4.63;;;4.22;;
13421;SDS011;6782;55.904;13.396;2023-05-10T08:09:07;7.45;;;4.65;;
13421;SDS011;6782;55.904;13.396;2023-05-10T08:11:36;6.97;;;4.32;;
13421;SDS011;6782;55.904;13.396;2023-05-10T08:14:03;6.88;;;4.55;;
13421;SDS011;6782;55.904;13.396;2023-05-10T08:16:31;5.25;;;4.75;;
13421;SDS011;6782;55.904;13.396;2023-05-10T08:18:59;5.32;;;4.50;;
13421;SDS011;6782;55.904;13.396;2023-05-10T08:21:27;5.88;;;5.05;;
13421;SDS011;6782;55.904;13.396;2023-05-10T08:23:54;5.13;;;4.00;;
13421;SDS011;6782;55.904;13.396;2023-05-10T08:26:21;6.80;;;4.70;;
13421;SDS011;6782;55.904;13.396;2023-05-10T08:28:49;10.85;;;5.60;;
13421;SDS011;6782;55.904;13.396;2023-05-10T08:31:16;6.03;;;4.50;;
13421;SDS011;6782;55.904;13.396;2023-05-10T08:33:45;5.07;;;4.10;;
13421;SDS011;6782;55.904;13.396;2023-05-10T08:36:12;6.25;;;4.15;;
13421;SDS011;6782;55.904;13.396;2023-05-10T08:38:45;7.95;;;4.55;;
13421;SDS011;6782;55.904;13.396;2023-05-10T08:41:22;5.13;;;4.63;;
13421;SDS011;6782;55.904;13.396;2023-05-10T08:43:51;5.30;;;4.28;;
13421;SDS011;6782;55.904;13.396;2023-05-10T08:46:20;5.90;;;4.50;;
13421;SDS011;6782;55.904;13.396;2023-05-10T08:48:50;5.78;;;4.07;;
13421;SDS011;6782;55.904;13.396;2023-05-10T08:51:36;6.25;;;4.22;;
13421;SDS011;6782;55.904;13.396;2023-05-10T08:54:27;4.88;;;4.40;;
13421;SDS011;6782;55.904;13.396;2023-05-10T08:57:15;7.00;;;4.15;;
13421;SDS011;6782;55.904;13.396;2023-05-10T09:00:02;6.35;;;4.35;;
13421;SDS011;6782;55.904;13.396;2023-05-10T09:02:51;6.30;;;4.70;;
13421;SDS011;6782;55.904;13.396;2023-05-10T09:05:40;4.40;;;4.00;;
13421;SDS011;6782;55.904;13.396;2023-05-10T09:08:28;4.75;;;4.35;;
13421;SDS011;6782;55.904;13.396;2023-05-10T09:11:16;9.07;;;4.80;;
13421;SDS011;6782;55.904;13.396;2023-05-10T09:14:04;5.43;;;4.10;;
13421;SDS011;6782;55.904;13.396;2023-05-10T09:16:51;5.57;;;3.70;;
13421;SDS011;6782;55.904;13.396;2023-05-10T09:19:40;4.53;;;3.90;;
13421;SDS011;6782;55.904;13.396;2023-05-10T09:22:29;6.00;;;3.58;;
13421;SDS011;6782;55.904;13.396;2023-05-10T09:25:17;4.15;;;3.85;;
13421;SDS011;6782;55.904;13.396;2023-05-10T09:28:05;5.22;;;3.75;;
13421;SDS011;6782;55.904;13.396;2023-05-10T09:30:54;4.63;;;4.10;;
13421;SDS011;6782;55.904;13.396;2023-05-10T09:33:43;5.65;;;3.70;;
13421;SDS011;6782;55.904;13.396;2023-05-10T09:36:31;4.18;;;3.60;;
13421;SDS011;6782;55.904;13.396;2023-05-10T09:39:20;4.95;;;3.70;;
13421;SDS011;6782;55.904;13.396;2023-05-10T09:42:08;5.10;;;3.50;;
13421;SDS011;6782;55.904;13.396;2023-05-10T09:44:59;4.72;;;3.65;;
13421;SDS011;6782;55.904;13.396;2023-05-10T09:47:47;4.38;;;3.60;;
13421;SDS011;6782;55.904;13.396;2023-05-10T09:50:34;5.40;;;3.55;;
13421;SDS011;6782;55.904;13.396;2023-05-10T09:53:22;6.50;;;3.33;;
13421;SDS011;6782;55.904;13.396;2023-05-10T09:56:10;4.07;;;3.40;;
13421;SDS011;6782;55.904;13.396;2023-05-10T09:59:01;4.78;;;3.72;;
13421;SDS011;6782;55.904;13.396;2023-05-10T10:01:49;6.13;;;3.53;;
13421;SDS011;6782;55.904;13.396;2023-05-10T10:04:38;4.32;;;3.20;;
13421;SDS011;6782;55.904;13.396;2023-05-10T10:07:26;6.45;;;3.35;;
13421;SDS011;6782;55.904;13.396;2023-05-10T10:10:14;5.95;;;3.95;;
13421;SDS011;6782;55.904;13.396;2023-05-10T10:13:03;3.80;;;3.47;;
13421;SDS011;6782;55.904;13.396;2023-05-10T10:15:51;5.65;;;3.67;;
13421;SDS011;6782;55.904;13.396;2023-05-10T10:18:41;3.92;;;3.58;;
13421;SDS011;6782;55.904;13.396;2023-05-10T10:21:29;3.63;;;3.25;;
13421;SDS011;6782;55.904;13.396;2023-05-10T10:24:16;6.03;;;3.42;;
13421;SDS011;6782;55.904;13.396;2023-05-10T10:27:07;4.28;;;3.40;;
13421;SDS011;6782;55.904;13.396;2023-05-10T10:30:04;4.63;;;3.80;;
13421;SDS011;6782;55.904;13.396;2023-05-10T10:33:04;4.28;;;3.55;;
13421;SDS011;6782;55.904;13.396;2023-05-10T10:36:01;4.53;;;3.85;;
13421;SDS011;6782;55.904;13.396;2023-05-10T10:38:56;3.90;;;3.60;;
13421;SDS011;6782;55.904;13.396;2023-05-10T10:41:49;3.38;;;3.08;;
13421;SDS011;6782;55.904;13.396;2023-05-10T10:44:38;3.78;;;3.47;;
13421;SDS011;6782;55.904;13.396;2023-05-10T10:47:29;5.43;;;3.20;;
13421;SDS011;6782;55.904;13.396;2023-05-10T10:50:18;3.80;;;3.42;;
13421;SDS011;6782;55.904;13.396;2023-05-10T10:53:10;5.13;;;3.60;;
13421;SDS011;6782;55.904;13.396;2023-05-10T10:59:09;3.65;;;3.35;;
13421;SDS011;6782;55.904;13.396;2023-05-10T11:01:56;3.38;;;3.17;;
13421;SDS011;6782;55.904;13.396;2023-05-10T11:04:47;4.07;;;2.92;;
13421;SDS011;6782;55.904;13.396;2023-05-10T11:07:34;5.78;;;3.28;;
13421;SDS011;6782;55.904;13.396;2023-05-10T11:10:21;8.48;;;3.47;;
13421;SDS011;6782;55.904;13.396;2023-05-10T11:13:09;7.03;;;3.80;;
13421;SDS011;6782;55.904;13.396;2023-05-10T11:15:56;8.98;;;3.92;;
13421;SDS011;6782;55.904;13.396;2023-05-10T11:18:56;8.50;;;3.75;;
13421;SDS011;6782;55.904;13.396;2023-05-10T11:21:49;6.97;;;3.53;;
13421;SDS011;6782;55.904;13.396;2023-05-10T11:24:39;11.60;;;3.60;;
13421;SDS011;6782;55.904;13.396;2023-05-10T11:27:27;6.25;;;3.50;;
13421;SDS011;6782;55.904;13.396;2023-05-10T11:30:14;4.72;;;3.50;;
13421;SDS011;6782;55.904;13.396;2023-05-10T11:33:01;4.40;;;3.28;;
13421;SDS011;6782;55.904;13.396;2023-05-10T11:35:49;3.85;;;3.55;;
13421;SDS011;6782;55.904;13.396;2023-05-10T11:38:37;6.68;;;3.67;;
13421;SDS011;6782;55.904;13.396;2023-05-10T11:41:24;3.40;;;3.10;;
13421;SDS011;6782;55.904;13.396;2023-05-10T11:44:13;4.00;;;3.53;;
13421;SDS011;6782;55.904;13.396;2023-05-10T11:47:01;4.18;;;3.78;;
13421;SDS011;6782;55.904;13.396;2023-05-10T11:49:49;5.45;;;3.35;;
13421;SDS011;6782;55.904;13.396;2023-05-10T11:52:36;3.67;;;3.38;;
13421;SDS011;6782;55.904;13.396;2023-05-10T11:55:25;4.20;;;3.47;;
13421;SDS011;6782;55.904;13.396;2023-05-10T11:58:15;4.45;;;3.22;;
13421;SDS011;6782;55.904;13.396;2023-05-10T12:01:05;5.30;;;3.80;;
13421;SDS011;6782;55.904;13.396;2023-05-10T12:03:54;4.28;;;3.40;;
13421;SDS011;6782;55.904;13.396;2023-05-10T12:06:43;3.85;;;3.50;;
13421;SDS011;6782;55.904;13.396;2023-05-10T12:09:31;3.78;;;3.47;;
13421;SDS011;6782;55.904;13.396;2023-05-10T12:12:20;3.85;;;3.42;;
13421;SDS011;6782;55.904;13.396;2023-05-10T12:15:11;6.10;;;3.30;;
13421;SDS011;6782;55.904;13.396;2023-05-10T12:18:03;2.83;;;2.63;;
13421;SDS011;6782;55.904;13.396;2023-05-10T12:20:51;3.45;;;2.78;;
13421;SDS011;6782;55.904;13.396;2023-05-10T12:23:39;3.42;;;3.00;;
13421;SDS011;6782;55.904;13.396;2023-05-10T12:26:27;3.95;;;2.80;;
13421;SDS011;6782;55.904;13.396;2023-05-10T12:29:17;2.95;;;2.72;;
13421;SDS011;6782;55.904;13.396;2023-05-10T12:32:05;3.03;;;2.67;;
13421;SDS011;6782;55.904;13.396;2023-05-10T12:34:52;4.13;;;2.50;;
13421;SDS011;6782;55.904;13.396;2023-05-10T12:37:41;3.03;;;2.58;;
13421;SDS011;6782;55.904;13.396;2023-05-10T12:40:28;3.83;;;2.35;;
13421;SDS011;6782;55.904;13.396;2023-05-10T12:43:16;5.57;;;2.58;;
13421;SDS011;6782;55.904;13.396;2023-05-10T12:46:09;4.85;;;2.58;;
13421;SDS011;6782;55.904;13.396;2023-05-10T12:48:57;5.07;;;2.95;;
13421;SDS011;6782;55.904;13.396;2023-05-10T12:51:44;4.93;;;3.03;;
13421;SDS011;6782;55.904;13.396;2023-05-10T12:54:31;3.03;;;2.60;;
13421;SDS011;6782;55.904;13.396;2023-05-10T12:57:20;6.93;;;2.88;;
13421;SDS011;6782;55.904;13.396;2023-05-10T13:00:08;5.15;;;3.10;;
13421;SDS011;6782;55.904;13.396;2023-05-10T13:02:58;6.43;;;3.30;;
13421;SDS011;6782;55.904;13.396;2023-05-10T13:05:45;4.53;;;2.63;;
13421;SDS011;6782;55.904;13.396;2023-05-10T13:08:32;4.32;;;2.90;;
13421;SDS011;6782;55.904;13.396;2023-05-10T13:11:19;3.42;;;2.72;;
13421;SDS011;6782;55.904;13.396;2023-05-10T13:14:07;3.95;;;2.50;;
13421;SDS011;6782;55.904;13.396;2023-05-10T13:16:54;5.18;;;3.28;;
13421;SDS011;6782;55.904;13.396;2023-05-10T13:19:43;3.00;;;2.58;;
13421;SDS011;6782;55.904;13.396;2023-05-10T13:22:30;4.38;;;2.75;;
13421;SDS011;6782;55.904;13.396;2023-05-10T13:25:17;7.05;;;2.97;;
13421;SDS011;6782;55.904;13.396;2023-05-10T13:28:05;5.50;;;2.88;;
13421;SDS011;6782;55.904;13.396;2023-05-10T13:30:52;2.90;;;2.67;;
13421;SDS011;6782;55.904;13.396;2023-05-10T13:33:39;4.47;;;3.10;;
13421;SDS011;6782;55.904;13.396;2023-05-10T13:36:28;7.43;;;3.10;;
13421;SDS011;6782;55.904;13.396;2023-05-10T13:39:16;6.30;;;2.85;;
13421;SDS011;6782;55.904;13.396;2023-05-10T13:42:04;5.40;;;2.97;;
13421;SDS011;6782;55.904;13.396;2023-05-10T13:44:51;7.75;;;3.30;;
13421;SDS011;6782;55.904;13.396;2023-05-10T13:47:39;5.63;;;3.35;;
13421;SDS011;6782;55.904;13.396;2023-05-10T13:50:26;6.80;;;3.08;;
13421;SDS011;6782;55.904;13.396;2023-05-10T13:53:14;7.45;;;2.85;;
13421;SDS011;6782;55.904;13.396;2023-05-10T13:56:02;3.35;;;2.92;;
13421;SDS011;6782;55.904;13.396;2023-05-10T13:58:49;8.20;;;3.33;;
13421;SDS011;6782;55.904;13.396;2023-05-10T14:01:36;5.20;;;3.30;;
13421;SDS011;6782;55.904;13.396;2023-05-10T14:04:23;3.83;;;2.78;;
13421;SDS011;6782;55.904;13.396;2023-05-10T14:07:10;3.28;;;2.80;;
13421;SDS011;6782;55.904;13.396;2023-05-10T14:09:59;5.65;;;2.58;;
13421;SDS011;6782;55.904;13.396;2023-05-10T14:12:47;3.95;;;3.25;;
13421;SDS011;6782;55.904;13.396;2023-05-10T14:15:34;2.78;;;2.53;;
13421;SDS011;6782;55.904;13.396;2023-05-10T14:18:21;4.28;;;2.92;;
13421;SDS011;6782;55.904;13.396;2023-05-10T14:21:09;4.90;;;3.15;;
13421;SDS011;6782;55.904;13.396;2023-05-10T14:23:56;3.10;;;2.63;;
13421;SDS011;6782;55.904;13.396;2023-05-10T14:26:45;3.65;;;2.95;;
13421;SDS011;6782;55.904;13.396;2023-05-10T14:29:32;6.65;;;2.95;;
13421;SDS011;6782;55.904;13.396;2023-05-10T14:32:20;5.45;;;3.00;;
13421;SDS011;6782;55.904;13.396;2023-05-10T14:35:07;3.00;;;2.53;;
13421;SDS011;6782;55.904;13.396;2023-05-10T14:37:55;6.65;;;2.90;;
13421;SDS011;6782;55.904;13.396;2023-05-10T14:40:42;4.18;;;2.75;;
13421;SDS011;6782;55.904;13.396;2023-05-10T14:43:31;5.63;;;3.03;;
13421;SDS011;6782;55.904;13.396;2023-05-10T14:46:19;3.70;;;2.78;;
13421;SDS011;6782;55.904;13.396;2023-05-10T14:49:06;4.18;;;2.50;;
13421;SDS011;6782;55.904;13.396;2023-05-10T14:51:53;3.20;;;2.90;;
13421;SDS011;6782;55.904;13.396;2023-05-10T14:54:41;6.97;;;2.78;;
13421;SDS011;6782;55.904;13.396;2023-05-10T14:57:28;3.92;;;3.10;;
13421;SDS011;6782;55.904;13.396;2023-05-10T15:00:18;5.47;;;2.85;;
13421;SDS011;6782;55.904;13.396;2023-05-10T15:03:06;3.53;;;2.83;;
13421;SDS011;6782;55.904;13.396;2023-05-10T15:05:53;6.75;;;3.15;;
13421;SDS011;6782;55.904;13.396;2023-05-10T15:08:41;3.92;;;3.08;;
13421;SDS011;6782;55.904;13.396;2023-05-10T15:11:29;3.50;;;3.17;;
13421;SDS011;6782;55.904;13.396;2023-05-10T15:14:16;3.38;;;2.90;;
13421;SDS011;6782;55.904;13.396;2023-05-10T15:17:05;7.57;;;3.08;;
13421;SDS011;6782;55.904;13.396;2023-05-10T15:19:53;5.63;;;3.45;;
13421;SDS011;6782;55.904;13.396;2023-05-10T15:22:40;5.00;;;2.95;;
13421;SDS011;6782;55.904;13.396;2023-05-10T15:25:27;3.25;;;2.95;;
13421;SDS011;6782;55.904;13.396;2023-05-10T15:28:15;6.43;;;2.88;;
13421;SDS011;6782;55.904;13.396;2023-05-10T15:31:02;6.10;;;3.20;;
13421;SDS011;6782;55.904;13.396;2023-05-10T15:33:51;5.47;;;3.45;;
13421;SDS011;6782;55.904;13.396;2023-05-10T15:36:38;6.75;;;3.20;;
13421;SDS011;6782;55.904;13.396;2023-05-10T15:39:25;5.65;;;3.05;;
13421;SDS011;6782;55.904;13.396;2023-05-10T15:42:12;3.25;;;2.75;;
13421;SDS011;6782;55.904;13.396;2023-05-10T15:44:59;4.57;;;2.92;;
13421;SDS011;6782;55.904;13.396;2023-05-10T15:47:47;4.20;;;2.72;;
13421;SDS011;6782;55.904;13.396;2023-05-10T15:50:35;3.78;;;3.28;;
13421;SDS011;6782;55.904;13.396;2023-05-10T15:53:22;3.53;;;2.85;;
13421;SDS011;6782;55.904;13.396;2023-05-10T15:56:10;4.22;;;3.05;;
13421;SDS011;6782;55.904;13.396;2023-05-10T15:58:57;4.28;;;3.65;;
13421;SDS011;6782;55.904;13.396;2023-05-10T16:01:44;7.68;;;5.38;;
13421;SDS011;6782;55.904;13.396;2023-05-10T16:04:32;4.15;;;2.97;;